createdAt,value
2023-05-01T00:00:20.309Z,1005.19
2023-05-01T00:01:20.282Z,1005.21
2023-05-01T00:02:20.432Z,1005.23
2023-05-01T00:03:20.305Z,1005.20
2023-05-01T00:04:20.410Z,1005.14
2023-05-01T00:05:20.242Z,1005.17
2023-05-01T00:06:20.316Z,1005.13
2023-05-01T00:07:20.284Z,1005.13
2023-05-01T00:08:20.216Z,1005.14
2023-05-01T00:09:20.199Z,1005.09
2023-05-01T00:10:20.256Z,1005.07
2023-05-01T00:11:20.174Z,1005.05
2023-05-01T00:12:20.172Z,1005.07
2023-05-01T00:13:20.213Z,1005.00
2023-05-01T00:14:20.125Z,1005.04
2023-05-01T00:15:20.139Z,1005.06
2023-05-01T00:16:20.154Z,1005.00
2023-05-01T00:17:20.076Z,1005.01
2023-05-01T00:18:20.109Z,1004.99
2023-05-01T00:19:20.266Z,1004.98
2023-05-01T00:20:20.080Z,1005.00
2023-05-01T00:21:20.034Z,1004.97
2023-05-01T00:22:20.040Z,1004.96
2023-05-01T00:23:20.057Z,1004.88
2023-05-01T00:24:20.046Z,1004.86
2023-05-01T00:25:20.036Z,1004.84
2023-05-01T00:26:20.015Z,1004.85
2023-05-01T00:27:19.997Z,1004.88
2023-05-01T00:28:19.982Z,1004.81
2023-05-01T00:29:19.974Z,1004.82
2023-05-01T00:30:19.948Z,1004.85
2023-05-01T00:31:19.999Z,1004.81
2023-05-01T00:32:20.137Z,1004.77
2023-05-01T00:33:19.902Z,1004.78
2023-05-01T00:34:19.897Z,1004.81
2023-05-01T00:35:19.905Z,1004.77
2023-05-01T00:36:19.911Z,1004.74
2023-05-01T00:37:19.941Z,1004.73
2023-05-01T00:38:19.914Z,1004.70
2023-05-01T00:39:19.844Z,1004.70
2023-05-01T00:40:19.860Z,1004.69
2023-05-01T00:41:19.823Z,1004.70
2023-05-01T00:42:19.877Z,1004.68
2023-05-01T00:43:19.817Z,1004.62
2023-05-01T00:44:19.816Z,1004.62
2023-05-01T00:45:19.762Z,1004.68
2023-05-01T00:46:19.826Z,1004.64
2023-05-01T00:47:19.843Z,1004.63
2023-05-01T00:48:19.775Z,1004.62
2023-05-01T00:49:19.751Z,1004.60
2023-05-01T00:50:19.746Z,1004.58
2023-05-01T00:51:19.711Z,1004.57
2023-05-01T00:52:19.737Z,1004.58
2023-05-01T00:53:19.722Z,1004.54
2023-05-01T00:54:19.697Z,1004.54
2023-05-01T00:55:19.682Z,1004.58
2023-05-01T00:56:19.674Z,1004.50
2023-05-01T00:57:19.636Z,1004.50
2023-05-01T00:58:19.636Z,1004.46
2023-05-01T00:59:19.607Z,1004.47
2023-05-01T01:00:19.703Z,1004.46
2023-05-01T01:01:19.626Z,1004.45
2023-05-01T01:02:19.588Z,1004.43
2023-05-01T01:03:19.573Z,1004.44
2023-05-01T01:04:19.620Z,1004.46
2023-05-01T01:05:19.570Z,1004.45
2023-05-01T01:06:19.688Z,1004.41
2023-05-01T01:07:19.527Z,1004.39
2023-05-01T01:08:19.539Z,1004.34
2023-05-01T01:09:19.497Z,1004.38
2023-05-01T01:10:19.535Z,1004.33
2023-05-01T01:11:19.519Z,1004.34
2023-05-01T01:12:19.501Z,1004.28
2023-05-01T01:13:19.481Z,1004.28
2023-05-01T01:14:19.444Z,1004.27
2023-05-01T01:15:19.427Z,1004.26
2023-05-01T01:16:19.514Z,1004.29
2023-05-01T01:17:19.454Z,1004.30
2023-05-01T01:18:19.448Z,1004.25
2023-05-01T01:19:19.398Z,1004.27
2023-05-01T01:20:19.403Z,1004.24
2023-05-01T01:21:19.402Z,1004.20
2023-05-01T01:22:19.346Z,1004.22
2023-05-01T01:23:19.351Z,1004.21
2023-05-01T01:24:19.357Z,1004.20
2023-05-01T01:25:19.331Z,1004.25
2023-05-01T01:26:19.326Z,1004.20
2023-05-01T01:27:19.312Z,1004.16
2023-05-01T01:28:19.305Z,1004.18
2023-05-01T01:29:19.281Z,1004.18
2023-05-01T01:30:19.256Z,1004.18
2023-05-01T01:31:19.386Z,1004.12
2023-05-01T01:32:19.294Z,1004.12
2023-05-01T01:33:19.240Z,1004.12
2023-05-01T01:34:19.212Z,1004.08
2023-05-01T01:35:19.228Z,1004.12
2023-05-01T01:36:19.216Z,1004.11
2023-05-01T01:37:19.202Z,1004.13
2023-05-01T01:38:19.228Z,1004.12
2023-05-01T01:39:19.165Z,1004.12
2023-05-01T01:40:19.138Z,1004.11
2023-05-01T01:41:19.119Z,1004.09
2023-05-01T01:42:19.149Z,1004.04
2023-05-01T01:43:19.117Z,1004.02
2023-05-01T01:44:19.149Z,1004.07
2023-05-01T01:45:19.101Z,1004.02
2023-05-01T01:46:19.169Z,1004.07
2023-05-01T01:47:19.122Z,1003.98
2023-05-01T01:48:19.049Z,1003.99
2023-05-01T01:49:20.736Z,1003.95
2023-05-01T01:50:19.053Z,1003.93
2023-05-01T01:51:19.026Z,1003.92
2023-05-01T01:52:19.090Z,1003.89
2023-05-01T01:53:19.002Z,1003.86
2023-05-01T01:54:18.977Z,1003.89
2023-05-01T01:55:18.988Z,1003.84
2023-05-01T01:56:19.039Z,1003.81
2023-05-01T01:57:18.991Z,1003.82
2023-05-01T01:58:18.958Z,1003.85
2023-05-01T01:59:18.910Z,1003.80
2023-05-01T02:00:18.919Z,1003.80
2023-05-01T02:01:18.928Z,1003.78
2023-05-01T02:02:18.895Z,1003.80
2023-05-01T02:03:18.956Z,1003.74
2023-05-01T02:04:19.002Z,1003.70
2023-05-01T02:05:18.842Z,1003.74
2023-05-01T02:06:18.958Z,1003.75
2023-05-01T02:07:18.844Z,1003.71
2023-05-01T02:08:18.838Z,1003.71
2023-05-01T02:09:18.862Z,1003.70
2023-05-01T02:10:18.821Z,1003.68
2023-05-01T02:11:18.826Z,1003.65
2023-05-01T02:12:18.794Z,1003.65
2023-05-01T02:13:18.745Z,1003.66
2023-05-01T02:14:18.740Z,1003.71
2023-05-01T02:15:18.771Z,1003.65
2023-05-01T02:16:18.761Z,1003.68
2023-05-01T02:17:18.779Z,1003.64
2023-05-01T02:18:18.758Z,1003.57
2023-05-01T02:19:18.714Z,1003.63
2023-05-01T02:20:18.705Z,1003.57
2023-05-01T02:21:18.665Z,1003.57
2023-05-01T02:22:18.661Z,1003.53
2023-05-01T02:23:18.641Z,1003.53
2023-05-01T02:24:18.657Z,1003.51
2023-05-01T02:25:18.649Z,1003.50
2023-05-01T02:26:18.651Z,1003.55
2023-05-01T02:27:18.617Z,1003.51
2023-05-01T02:28:18.613Z,1003.44
2023-05-01T02:29:18.631Z,1003.44
2023-05-01T02:30:18.634Z,1003.50
2023-05-01T02:31:18.549Z,1003.44
2023-05-01T02:32:18.545Z,1003.44
2023-05-01T02:33:18.519Z,1003.43
2023-05-01T02:34:18.545Z,1003.42
2023-05-01T02:35:18.524Z,1003.32
2023-05-01T02:36:18.495Z,1003.39
2023-05-01T02:37:18.495Z,1003.34
2023-05-01T02:38:18.473Z,1003.38
2023-05-01T02:39:18.506Z,1003.37
2023-05-01T02:40:18.474Z,1003.34
2023-05-01T02:41:18.454Z,1003.38
2023-05-01T02:42:18.445Z,1003.37
2023-05-01T02:43:18.424Z,1003.41
2023-05-01T02:44:18.421Z,1003.36
2023-05-01T02:45:18.389Z,1003.36
2023-05-01T02:46:18.473Z,1003.38
2023-05-01T02:47:18.418Z,1003.34
2023-05-01T02:48:18.456Z,1003.30
2023-05-01T02:49:18.331Z,1003.29
2023-05-01T02:50:18.341Z,1003.28
2023-05-01T02:51:18.333Z,1003.25
2023-05-01T02:52:18.310Z,1003.23
2023-05-01T02:53:18.347Z,1003.19
2023-05-01T02:54:18.292Z,1003.18
2023-05-01T02:55:18.309Z,1003.15
2023-05-01T02:56:18.309Z,1003.20
2023-05-01T02:57:18.268Z,1003.17
2023-05-01T02:58:18.307Z,1003.16
2023-05-01T02:59:18.235Z,1003.14
2023-05-01T03:00:18.217Z,1003.16
2023-05-01T03:01:18.315Z,1003.12
2023-05-01T03:02:18.196Z,1003.16
2023-05-01T03:03:18.277Z,1003.10
2023-05-01T03:04:18.269Z,1003.14
2023-05-01T03:05:18.156Z,1003.05
2023-05-01T03:06:18.228Z,1003.05
2023-05-01T03:07:18.131Z,1003.05
2023-05-01T03:08:25.165Z,1003.04
2023-05-01T03:09:18.096Z,1003.05
2023-05-01T03:10:18.153Z,1003.03
2023-05-01T03:11:18.136Z,1003.02
2023-05-01T03:12:18.085Z,1003.01
2023-05-01T03:13:18.055Z,1003.00
2023-05-01T03:14:18.102Z,1002.99
2023-05-01T03:15:18.055Z,1003.02
2023-05-01T03:16:18.154Z,1002.99
2023-05-01T03:17:18.011Z,1002.99
2023-05-01T03:18:18.010Z,1002.93
2023-05-01T03:19:18.016Z,1002.98
2023-05-01T03:20:18.016Z,1002.92
2023-05-01T03:21:18.197Z,1002.87
2023-05-01T03:22:17.965Z,1002.92
2023-05-01T03:23:17.937Z,1002.89
2023-05-01T03:24:17.952Z,1002.84
2023-05-01T03:25:17.914Z,1002.88
2023-05-01T03:26:17.948Z,1002.87
2023-05-01T03:27:17.926Z,1002.83
2023-05-01T03:28:18.011Z,1002.87
2023-05-01T03:29:17.896Z,1002.86
2023-05-01T03:30:17.909Z,1002.81
2023-05-01T03:31:17.873Z,1002.79
2023-05-01T03:32:17.995Z,1002.76
2023-05-01T03:33:17.832Z,1002.80
2023-05-01T03:34:17.842Z,1002.75
2023-05-01T03:35:17.880Z,1002.75
2023-05-01T03:36:17.802Z,1002.75
2023-05-01T03:37:17.805Z,1002.76
2023-05-01T03:38:17.824Z,1002.75
2023-05-01T03:39:17.804Z,1002.72
2023-05-01T03:40:17.791Z,1002.70
2023-05-01T03:41:17.764Z,1002.70
2023-05-01T03:42:17.731Z,1002.67
2023-05-01T03:43:17.733Z,1002.69
2023-05-01T03:44:17.714Z,1002.67
2023-05-01T03:45:18.090Z,1002.65
2023-05-01T03:46:17.743Z,1002.68
2023-05-01T03:47:17.660Z,1002.62
2023-05-01T03:48:17.685Z,1002.69
2023-05-01T03:49:17.658Z,1002.63
2023-05-01T03:50:17.651Z,1002.64
2023-05-01T03:51:17.672Z,1002.63
2023-05-01T03:52:17.671Z,1002.60
2023-05-01T03:53:17.634Z,1002.64
2023-05-01T03:54:17.593Z,1002.62
2023-05-01T03:55:17.584Z,1002.66
2023-05-01T03:56:17.634Z,1002.59
2023-05-01T03:57:17.552Z,1002.59
2023-05-01T03:58:17.573Z,1002.62
2023-05-01T03:59:17.529Z,1002.59
2023-05-01T04:00:17.553Z,1002.60
2023-05-01T04:01:17.632Z,1002.54
2023-05-01T04:02:17.555Z,1002.58
2023-05-01T04:03:17.620Z,1002.59
2023-05-01T04:04:17.520Z,1002.56
2023-05-01T04:05:17.479Z,1002.61
2023-05-01T04:06:17.614Z,1002.57
2023-05-01T04:07:17.489Z,1002.58
2023-05-01T04:08:17.442Z,1002.54
2023-05-01T04:09:17.437Z,1002.55
2023-05-01T04:10:17.495Z,1002.53
2023-05-01T04:11:17.388Z,1002.51
2023-05-01T04:12:17.389Z,1002.55
2023-05-01T04:13:17.373Z,1002.58
2023-05-01T04:14:17.392Z,1002.60
2023-05-01T04:15:17.725Z,1002.53
2023-05-01T04:16:17.382Z,1002.54
2023-05-01T04:17:17.344Z,1002.54
2023-05-01T04:18:17.407Z,1002.53
2023-05-01T04:19:17.335Z,1002.49
2023-05-01T04:20:17.331Z,1002.49
2023-05-01T04:21:17.515Z,1002.47
2023-05-01T04:22:17.278Z,1002.47
2023-05-01T04:23:17.270Z,1002.53
2023-05-01T04:24:17.252Z,1002.49
2023-05-01T04:25:17.257Z,1002.50
2023-05-01T04:26:17.226Z,1002.49
2023-05-01T04:27:17.238Z,1002.48
2023-05-01T04:28:17.224Z,1002.46
2023-05-01T04:29:17.214Z,1002.50
2023-05-01T04:30:17.208Z,1002.44
2023-05-01T04:31:17.207Z,1002.47
2023-05-01T04:32:17.210Z,1002.47
2023-05-01T04:33:17.140Z,1002.39
2023-05-01T04:34:17.169Z,1002.40
2023-05-01T04:35:17.111Z,1002.38
2023-05-01T04:36:17.108Z,1002.41
2023-05-01T04:37:17.123Z,1002.45
2023-05-01T04:38:17.314Z,1002.42
2023-05-01T04:39:17.079Z,1002.44
2023-05-01T04:40:17.056Z,1002.39
2023-05-01T04:41:17.067Z,1002.40
2023-05-01T04:42:17.068Z,1002.39
2023-05-01T04:43:17.217Z,1002.38
2023-05-01T04:44:17.049Z,1002.38
2023-05-01T04:45:16.981Z,1002.36
2023-05-01T04:46:16.999Z,1002.40
2023-05-01T04:47:16.989Z,1002.37
2023-05-01T04:48:17.801Z,1002.44
2023-05-01T04:49:16.940Z,1002.41
2023-05-01T04:50:16.967Z,1002.39
2023-05-01T04:51:16.946Z,1002.37
2023-05-01T04:52:16.950Z,1002.42
2023-05-01T04:53:16.921Z,1002.42
2023-05-01T04:54:16.948Z,1002.39
2023-05-01T04:55:16.871Z,1002.38
2023-05-01T04:56:16.864Z,1002.39
2023-05-01T04:57:16.854Z,1002.40
2023-05-01T04:58:16.876Z,1002.36
2023-05-01T04:59:16.847Z,1002.36
2023-05-01T05:00:16.823Z,1002.42
2023-05-01T05:01:16.996Z,1002.42
2023-05-01T05:02:16.844Z,1002.35
2023-05-01T05:03:16.900Z,1002.37
2023-05-01T05:04:16.819Z,1002.34
2023-05-01T05:05:16.775Z,1002.38
2023-05-01T05:06:16.935Z,1002.38
2023-05-01T05:07:16.843Z,1002.36
2023-05-01T05:08:16.759Z,1002.38
2023-05-01T05:09:18.055Z,1002.36
2023-05-01T05:10:16.703Z,1002.39
2023-05-01T05:11:16.699Z,1002.41
2023-05-01T05:12:16.674Z,1002.40
2023-05-01T05:13:16.717Z,1002.39
2023-05-01T05:14:16.691Z,1002.38
2023-05-01T05:15:16.705Z,1002.39
2023-05-01T05:16:16.652Z,1002.43
2023-05-01T05:17:16.655Z,1002.44
2023-05-01T05:18:16.831Z,1002.41
2023-05-01T05:19:16.606Z,1002.43
2023-05-01T05:20:16.616Z,1002.36
2023-05-01T05:21:16.592Z,1002.40
2023-05-01T05:22:16.560Z,1002.38
2023-05-01T05:23:16.559Z,1002.34
2023-05-01T05:24:16.599Z,1002.38
2023-05-01T05:25:16.560Z,1002.36
2023-05-01T05:26:16.562Z,1002.37
2023-05-01T05:27:16.513Z,1002.37
2023-05-01T05:28:16.517Z,1002.36
2023-05-01T05:29:16.536Z,1002.37
2023-05-01T05:30:16.498Z,1002.38
2023-05-01T05:31:16.489Z,1002.38
2023-05-01T05:32:16.546Z,1002.37
2023-05-01T05:33:16.489Z,1002.40
2023-05-01T05:34:16.457Z,1002.39
2023-05-01T05:35:16.418Z,1002.40
2023-05-01T05:36:16.401Z,1002.40
2023-05-01T05:37:16.395Z,1002.41
2023-05-01T05:38:16.384Z,1002.40
2023-05-01T05:39:16.425Z,1002.38
2023-05-01T05:40:16.351Z,1002.42
2023-05-01T05:41:16.384Z,1002.41
2023-05-01T05:42:16.364Z,1002.39
2023-05-01T05:43:16.327Z,1002.40
2023-05-01T05:44:16.352Z,1002.38
2023-05-01T05:45:16.335Z,1002.34
2023-05-01T05:46:16.336Z,1002.35
2023-05-01T05:47:16.289Z,1002.35
2023-05-01T05:48:16.280Z,1002.39
2023-05-01T05:49:16.269Z,1002.36
2023-05-01T05:50:16.450Z,1002.35
2023-05-01T05:51:16.229Z,1002.31
2023-05-01T05:52:16.247Z,1002.37
2023-05-01T05:53:16.210Z,1002.32
2023-05-01T05:54:16.215Z,1002.29
2023-05-01T05:55:16.220Z,1002.37
2023-05-01T05:56:16.169Z,1002.28
2023-05-01T05:57:16.190Z,1002.32
2023-05-01T05:58:16.140Z,1002.33
2023-05-01T05:59:17.393Z,1002.34
2023-05-01T06:00:16.173Z,1002.38
2023-05-01T06:01:16.167Z,1002.31
2023-05-01T06:02:16.159Z,1002.34
2023-05-01T06:03:16.322Z,1002.35
2023-05-01T06:04:16.097Z,1002.30
2023-05-01T06:05:16.120Z,1002.29
2023-05-01T06:06:16.127Z,1002.28
2023-05-01T06:07:16.080Z,1002.30
2023-05-01T06:08:16.092Z,1002.25
2023-05-01T06:09:16.095Z,1002.31
2023-05-01T06:10:16.029Z,1002.28
2023-05-01T06:11:16.019Z,1002.30
2023-05-01T06:12:15.994Z,1002.26
2023-05-01T06:13:16.064Z,1002.25
2023-05-01T06:14:15.960Z,1002.31
2023-05-01T06:15:16.001Z,1002.33
2023-05-01T06:16:15.967Z,1002.36
2023-05-01T06:17:15.961Z,1002.34
2023-05-01T06:18:15.975Z,1002.32
2023-05-01T06:19:15.931Z,1002.34
2023-05-01T06:20:15.917Z,1002.28
2023-05-01T06:21:15.915Z,1002.33
2023-05-01T06:22:15.890Z,1002.34
2023-05-01T06:23:15.889Z,1002.30
2023-05-01T06:24:15.884Z,1002.29
2023-05-01T06:25:15.860Z,1002.32
2023-05-01T06:26:15.835Z,1002.34
2023-05-01T06:27:15.849Z,1002.32
2023-05-01T06:28:15.826Z,1002.33
2023-05-01T06:29:15.821Z,1002.26
2023-05-01T06:30:15.801Z,1002.33
2023-05-01T06:31:15.813Z,1002.33
2023-05-01T06:32:15.772Z,1002.28
2023-05-01T06:33:15.931Z,1002.28
2023-05-01T06:34:15.752Z,1002.32
2023-05-01T06:35:15.753Z,1002.28
2023-05-01T06:36:15.724Z,1002.36
2023-05-01T06:37:15.794Z,1002.28
2023-05-01T06:38:15.681Z,1002.26
2023-05-01T06:39:15.705Z,1002.27
2023-05-01T06:40:15.659Z,1002.24
2023-05-01T06:41:15.752Z,1002.23
2023-05-01T06:42:15.676Z,1002.29
2023-05-01T06:43:16.633Z,1002.21
2023-05-01T06:44:15.697Z,1002.23
2023-05-01T06:45:16.042Z,1002.21
2023-05-01T06:46:16.078Z,1002.23
2023-05-01T06:47:15.711Z,1002.26
2023-05-01T06:48:15.965Z,1002.25
2023-05-01T06:49:15.646Z,1002.30
2023-05-01T06:50:15.673Z,1002.28
2023-05-01T06:51:15.554Z,1002.26
2023-05-01T06:52:15.521Z,1002.24
2023-05-01T06:53:15.528Z,1002.20
2023-05-01T06:54:15.556Z,1002.19
2023-05-01T06:55:15.507Z,1002.21
2023-05-01T06:56:15.604Z,1002.24
2023-05-01T06:57:15.482Z,1002.25
2023-05-01T06:58:23.261Z,1002.24
2023-05-01T06:59:16.457Z,1002.30
2023-05-01T07:00:15.428Z,1002.30
2023-05-01T07:01:15.498Z,1002.31
2023-05-01T07:02:15.489Z,1002.24
2023-05-01T07:03:15.442Z,1002.29
2023-05-01T07:04:15.403Z,1002.24
2023-05-01T07:05:15.402Z,1002.23
2023-05-01T07:06:15.428Z,1002.27
2023-05-01T07:07:21.834Z,1002.19
2023-05-01T07:08:15.340Z,1002.23
2023-05-01T07:09:15.353Z,1002.20
2023-05-01T07:10:15.323Z,1002.22
2023-05-01T07:11:15.348Z,1002.20
2023-05-01T07:12:15.287Z,1002.20
2023-05-01T07:13:15.297Z,1002.17
2023-05-01T07:14:15.305Z,1002.18
2023-05-01T07:15:15.262Z,1002.22
2023-05-01T07:16:15.335Z,1002.19
2023-05-01T07:17:15.267Z,1002.16
2023-05-01T07:18:15.249Z,1002.19
2023-05-01T07:19:15.243Z,1002.23
2023-05-01T07:20:15.221Z,1002.14
2023-05-01T07:21:15.226Z,1002.16
2023-05-01T07:22:15.306Z,1002.16
2023-05-01T07:23:15.170Z,1002.12
2023-05-01T07:24:15.168Z,1002.20
2023-05-01T07:25:15.144Z,1002.19
2023-05-01T07:26:15.174Z,1002.18
2023-05-01T07:27:15.124Z,1002.23
2023-05-01T07:28:15.859Z,1002.24
2023-05-01T07:29:15.126Z,1002.18
2023-05-01T07:30:15.079Z,1002.20
2023-05-01T07:31:15.116Z,1002.17
2023-05-01T07:32:15.181Z,1002.20
2023-05-01T07:33:15.206Z,1002.18
2023-05-01T07:34:15.087Z,1002.16
2023-05-01T07:35:15.093Z,1002.22
2023-05-01T07:36:15.035Z,1002.11
2023-05-01T07:37:15.029Z,1002.14
2023-05-01T07:38:15.145Z,1002.08
2023-05-01T07:39:15.018Z,1002.07
2023-05-01T07:40:15.070Z,1002.10
2023-05-01T07:41:14.963Z,1002.12
2023-05-01T07:42:14.939Z,1002.08
2023-05-01T07:43:14.960Z,1002.10
2023-05-01T07:44:15.004Z,1002.09
2023-05-01T07:45:14.917Z,1002.08
2023-05-01T07:46:14.920Z,1002.06
2023-05-01T07:47:14.888Z,1002.10
2023-05-01T07:48:14.929Z,1002.09
2023-05-01T07:49:14.899Z,1002.10
2023-05-01T07:50:14.880Z,1002.10
2023-05-01T07:51:14.846Z,1002.09
2023-05-01T07:52:14.821Z,1002.10
2023-05-01T07:53:14.828Z,1002.10
2023-05-01T07:54:14.840Z,1002.07
2023-05-01T07:55:15.163Z,1002.08
2023-05-01T07:56:14.786Z,1002.10
2023-05-01T07:57:14.774Z,1002.07
2023-05-01T07:58:14.784Z,1002.11
2023-05-01T07:59:14.777Z,1002.09
2023-05-01T08:00:14.749Z,1002.12
2023-05-01T08:01:14.791Z,1002.12
2023-05-01T08:02:14.761Z,1002.07
2023-05-01T08:03:14.909Z,1002.12
2023-05-01T08:04:14.741Z,1002.09
2023-05-01T08:05:14.718Z,1002.08
2023-05-01T08:06:14.736Z,1002.05
2023-05-01T08:07:14.666Z,1002.09
2023-05-01T08:08:14.636Z,1002.07
2023-05-01T08:09:14.648Z,1002.05
2023-05-01T08:10:14.613Z,1002.05
2023-05-01T08:11:14.729Z,1002.06
2023-05-01T08:12:14.592Z,1002.07
2023-05-01T08:13:14.586Z,1002.10
2023-05-01T08:14:14.596Z,1002.10
2023-05-01T08:15:14.680Z,1002.11
2023-05-01T08:16:14.583Z,1002.11
2023-05-01T08:17:14.546Z,1002.14
2023-05-01T08:18:14.592Z,1002.09
2023-05-01T08:19:14.549Z,1002.12
2023-05-01T08:20:14.531Z,1002.08
2023-05-01T08:21:14.545Z,1002.06
2023-05-01T08:22:14.490Z,1002.11
2023-05-01T08:23:14.496Z,1002.10
2023-05-01T08:24:14.486Z,1002.05
2023-05-01T08:25:14.451Z,1002.06
2023-05-01T08:26:14.500Z,1002.03
2023-05-01T08:27:14.426Z,1002.02
2023-05-01T08:28:14.428Z,1002.02
2023-05-01T08:29:14.408Z,1001.98
2023-05-01T08:30:14.441Z,1001.98
2023-05-01T08:31:14.480Z,1002.01
2023-05-01T08:32:14.384Z,1002.02
2023-05-01T08:33:14.532Z,1001.97
2023-05-01T08:34:14.338Z,1001.97
2023-05-01T08:35:14.368Z,1001.96
2023-05-01T08:36:14.374Z,1001.94
2023-05-01T08:37:14.306Z,1001.94
2023-05-01T08:38:14.313Z,1001.93
2023-05-01T08:39:14.289Z,1001.91
2023-05-01T08:40:14.287Z,1001.92
2023-05-01T08:41:14.319Z,1001.96
2023-05-01T08:42:14.267Z,1001.92
2023-05-01T08:43:14.275Z,1001.95
2023-05-01T08:44:14.213Z,1001.96
2023-05-01T08:45:14.247Z,1001.98
2023-05-01T08:46:14.443Z,1001.96
2023-05-01T08:47:14.246Z,1001.99
2023-05-01T08:48:14.180Z,1001.95
2023-05-01T08:49:14.169Z,1002.00
2023-05-01T08:50:14.331Z,1001.98
2023-05-01T08:51:14.153Z,1001.97
2023-05-01T08:52:14.163Z,1001.95
2023-05-01T08:53:14.136Z,1001.97
2023-05-01T08:54:14.109Z,1001.94
2023-05-01T08:55:14.121Z,1001.96
2023-05-01T08:56:14.095Z,1001.96
2023-05-01T08:57:14.097Z,1001.97
2023-05-01T08:58:14.076Z,1001.96
2023-05-01T08:59:14.086Z,1001.97
2023-05-01T09:00:14.031Z,1001.94
2023-05-01T09:01:14.195Z,1001.89
2023-05-01T09:02:14.021Z,1001.95
2023-05-01T09:03:14.183Z,1001.91
2023-05-01T09:04:14.033Z,1001.94
2023-05-01T09:05:13.980Z,1001.92
2023-05-01T09:06:14.004Z,1001.91
2023-05-01T09:07:13.959Z,1001.92
2023-05-01T09:08:21.163Z,1001.92
2023-05-01T09:09:13.965Z,1001.93
2023-05-01T09:10:13.948Z,1001.89
2023-05-01T09:11:13.973Z,1001.92
2023-05-01T09:12:13.906Z,1001.90
2023-05-01T09:13:13.903Z,1001.88
2023-05-01T09:14:13.905Z,1001.92
2023-05-01T09:15:13.877Z,1001.88
2023-05-01T09:16:13.927Z,1001.92
2023-05-01T09:17:13.877Z,1001.89
2023-05-01T09:18:15.598Z,1001.89
2023-05-01T09:19:13.821Z,1001.90
2023-05-01T09:20:13.831Z,1001.92
2023-05-01T09:21:13.808Z,1001.90
2023-05-01T09:22:13.874Z,1001.92
2023-05-01T09:23:15.480Z,1001.90
2023-05-01T09:24:13.791Z,1001.90
2023-05-01T09:25:13.767Z,1001.86
2023-05-01T09:26:13.809Z,1001.90
2023-05-01T09:27:13.745Z,1001.85
2023-05-01T09:28:13.748Z,1001.93
2023-05-01T09:29:13.750Z,1001.92
2023-05-01T09:30:13.719Z,1001.95
2023-05-01T09:31:13.701Z,1001.92
2023-05-01T09:32:13.792Z,1001.93
2023-05-01T09:33:13.731Z,1001.87
2023-05-01T09:34:13.656Z,1001.80
2023-05-01T09:35:13.695Z,1001.82
2023-05-01T09:36:13.660Z,1001.79
2023-05-01T09:37:13.644Z,1001.81
2023-05-01T09:38:13.613Z,1001.78
2023-05-01T09:39:13.582Z,1001.80
2023-05-01T09:40:13.635Z,1001.78
2023-05-01T09:41:13.561Z,1001.78
2023-05-01T09:42:13.594Z,1001.76
2023-05-01T09:43:13.568Z,1001.76
2023-05-01T09:44:13.536Z,1001.79
2023-05-01T09:45:13.507Z,1001.77
2023-05-01T09:46:13.601Z,1001.75
2023-05-01T09:47:15.209Z,1001.80
2023-05-01T09:48:13.537Z,1001.74
2023-05-01T09:49:13.469Z,1001.81
2023-05-01T09:50:13.499Z,1001.79
2023-05-01T09:51:13.461Z,1001.74
2023-05-01T09:52:13.443Z,1001.73
2023-05-01T09:53:13.420Z,1001.76
2023-05-01T09:54:13.420Z,1001.77
2023-05-01T09:55:13.420Z,1001.81
2023-05-01T09:56:13.443Z,1001.74
2023-05-01T09:57:13.376Z,1001.76
2023-05-01T09:58:13.375Z,1001.76
2023-05-01T09:59:13.372Z,1001.76
2023-05-01T10:00:13.351Z,1001.76
2023-05-01T10:01:13.397Z,1001.71
2023-05-01T10:02:13.420Z,1001.70
2023-05-01T10:03:13.522Z,1001.73
2023-05-01T10:04:13.323Z,1001.70
2023-05-01T10:05:13.317Z,1001.71
2023-05-01T10:06:13.373Z,1001.67
2023-05-01T10:07:13.291Z,1001.74
2023-05-01T10:08:13.256Z,1001.71
2023-05-01T10:09:13.236Z,1001.71
2023-05-01T10:10:13.264Z,1001.70
2023-05-01T10:11:13.231Z,1001.69
2023-05-01T10:12:13.244Z,1001.71
2023-05-01T10:13:13.216Z,1001.73
2023-05-01T10:14:13.225Z,1001.70
2023-05-01T10:15:24.690Z,1001.74
2023-05-01T10:16:14.227Z,1001.78
2023-05-01T10:17:13.259Z,1001.80
2023-05-01T10:18:13.280Z,1001.81
2023-05-01T10:19:13.133Z,1001.71
2023-05-01T10:20:13.239Z,1001.76
2023-05-01T10:21:13.090Z,1001.75
2023-05-01T10:22:13.172Z,1001.76
2023-05-01T10:23:13.111Z,1001.77
2023-05-01T10:24:13.086Z,1001.72
2023-05-01T10:25:13.061Z,1001.72
2023-05-01T10:26:13.068Z,1001.70
2023-05-01T10:27:13.033Z,1001.72
2023-05-01T10:28:13.030Z,1001.72
2023-05-01T10:29:13.054Z,1001.69
2023-05-01T10:30:13.033Z,1001.67
2023-05-01T10:31:13.062Z,1001.74
2023-05-01T10:32:13.040Z,1001.71
2023-05-01T10:33:13.178Z,1001.70
2023-05-01T10:34:13.027Z,1001.72
2023-05-01T10:35:12.941Z,1001.65
2023-05-01T10:36:12.983Z,1001.74
2023-05-01T10:37:12.960Z,1001.71
2023-05-01T10:38:12.905Z,1001.72
2023-05-01T10:39:12.905Z,1001.72
2023-05-01T10:40:12.888Z,1001.72
2023-05-01T10:41:12.909Z,1001.65
2023-05-01T10:42:12.904Z,1001.67
2023-05-01T10:43:12.865Z,1001.71
2023-05-01T10:44:12.862Z,1001.70
2023-05-01T10:45:12.865Z,1001.70
2023-05-01T10:46:14.567Z,1001.59
2023-05-01T10:47:12.809Z,1001.68
2023-05-01T10:48:12.790Z,1001.57
2023-05-01T10:49:12.823Z,1001.59
2023-05-01T10:50:12.784Z,1001.63
2023-05-01T10:51:12.746Z,1001.60
2023-05-01T10:52:12.778Z,1001.54
2023-05-01T10:53:14.488Z,1001.51
2023-05-01T10:54:12.739Z,1001.54
2023-05-01T10:55:12.720Z,1001.49
2023-05-01T10:56:12.783Z,1001.47
2023-05-01T10:57:12.695Z,1001.51
2023-05-01T10:58:12.717Z,1001.48
2023-05-01T10:59:12.692Z,1001.48
2023-05-01T11:00:12.702Z,1001.44
2023-05-01T11:01:12.653Z,1001.46
2023-05-01T11:02:12.693Z,1001.45
2023-05-01T11:03:12.663Z,1001.43
2023-05-01T11:04:12.630Z,1001.47
2023-05-01T11:05:12.637Z,1001.46
2023-05-01T11:06:12.711Z,1001.42
2023-05-01T11:07:12.601Z,1001.45
2023-05-01T11:08:12.555Z,1001.45
2023-05-01T11:09:12.556Z,1001.37
2023-05-01T11:10:12.561Z,1001.37
2023-05-01T11:11:12.507Z,1001.36
2023-05-01T11:12:12.534Z,1001.41
2023-05-01T11:13:12.486Z,1001.40
2023-05-01T11:14:12.515Z,1001.37
2023-05-01T11:15:12.498Z,1001.42
2023-05-01T11:16:12.604Z,1001.37
2023-05-01T11:17:12.489Z,1001.39
2023-05-01T11:18:12.506Z,1001.44
2023-05-01T11:19:12.420Z,1001.36
2023-05-01T11:20:12.456Z,1001.38
2023-05-01T11:21:12.393Z,1001.38
2023-05-01T11:22:12.457Z,1001.38
2023-05-01T11:23:12.370Z,1001.40
2023-05-01T11:24:12.374Z,1001.36
2023-05-01T11:25:12.376Z,1001.36
2023-05-01T11:26:12.348Z,1001.37
2023-05-01T11:27:12.333Z,1001.34
2023-05-01T11:28:12.379Z,1001.40
2023-05-01T11:29:12.304Z,1001.36
2023-05-01T11:30:12.344Z,1001.39
2023-05-01T11:31:12.362Z,1001.43
2023-05-01T11:32:12.353Z,1001.40
2023-05-01T11:33:12.298Z,1001.41
2023-05-01T11:34:12.295Z,1001.37
2023-05-01T11:35:12.281Z,1001.38
2023-05-01T11:36:12.355Z,1001.36
2023-05-01T11:37:12.237Z,1001.31
2023-05-01T11:38:12.211Z,1001.33
2023-05-01T11:39:12.190Z,1001.38
2023-05-01T11:40:12.198Z,1001.31
2023-05-01T11:41:12.204Z,1001.29
2023-05-01T11:42:12.237Z,1001.28
2023-05-01T11:43:12.160Z,1001.33
2023-05-01T11:44:12.522Z,1001.28
2023-05-01T11:45:12.155Z,1001.28
2023-05-01T11:46:12.216Z,1001.28
2023-05-01T11:47:12.094Z,1001.31
2023-05-01T11:48:12.150Z,1001.30
2023-05-01T11:49:12.234Z,1001.30
2023-05-01T11:50:12.098Z,1001.31
2023-05-01T11:51:12.081Z,1001.30
2023-05-01T11:52:12.045Z,1001.30
2023-05-01T11:53:12.056Z,1001.30
2023-05-01T11:54:13.646Z,1001.32
2023-05-01T11:55:12.029Z,1001.31
2023-05-01T11:56:19.687Z,1001.30
2023-05-01T11:57:13.006Z,1001.27
2023-05-01T11:58:12.062Z,1001.31
2023-05-01T11:59:12.005Z,1001.32
2023-05-01T12:00:11.959Z,1001.29
2023-05-01T12:01:11.944Z,1001.30
2023-05-01T12:02:12.022Z,1001.28
2023-05-01T12:03:12.314Z,1001.31
2023-05-01T12:04:12.009Z,1001.29
2023-05-01T12:05:11.890Z,1001.27